createdAt,value
2023-04-06T00:01:09.296Z,22.98
2023-04-06T00:03:36.677Z,22.95
2023-04-06T00:06:05.747Z,22.95
2023-04-06T00:08:32.715Z,22.96
2023-04-06T00:10:59.660Z,22.97
2023-04-06T00:13:26.562Z,22.95
2023-04-06T00:15:53.481Z,22.94
2023-04-06T00:18:20.835Z,22.92
2023-04-06T00:20:47.766Z,22.93
2023-04-06T00:23:16.424Z,22.93
2023-04-06T00:25:43.290Z,22.93
2023-04-06T00:28:10.306Z,22.92
2023-04-06T00:30:37.203Z,22.90
2023-04-06T00:33:04.584Z,22.88
2023-04-06T00:35:31.701Z,22.89
2023-04-06T00:37:58.699Z,22.87
2023-04-06T00:40:29.409Z,22.88
2023-04-06T00:42:56.490Z,22.88
2023-04-06T00:45:23.377Z,22.88
2023-04-06T00:47:50.506Z,22.86
2023-04-06T00:50:18.161Z,22.86
2023-04-06T00:52:45.528Z,22.84
2023-04-06T00:55:12.537Z,22.83
2023-04-06T00:57:44.300Z,22.82
2023-04-06T01:00:13.057Z,22.82
2023-04-06T01:02:40.827Z,22.82
2023-04-06T01:05:09.457Z,22.80
2023-04-06T01:07:46.881Z,22.79
2023-04-06T01:10:24.697Z,22.79
2023-04-06T01:12:54.265Z,22.78
2023-04-06T01:15:40.187Z,22.78
2023-04-06T01:18:11.267Z,22.77
2023-04-06T01:20:43.702Z,22.76
2023-04-06T01:23:12.680Z,22.77
2023-04-06T01:25:45.554Z,22.76
2023-04-06T01:28:12.975Z,22.76
2023-04-06T01:30:54.046Z,22.75
2023-04-06T01:33:37.979Z,22.76
2023-04-06T01:36:09.091Z,22.76
2023-04-06T01:38:37.956Z,22.76
2023-04-06T01:41:05.249Z,22.76
2023-04-06T01:43:42.935Z,22.74
2023-04-06T01:46:11.170Z,22.72
2023-04-06T01:48:41.510Z,22.73
2023-04-06T01:51:16.812Z,22.73
2023-04-06T01:53:54.070Z,22.73
2023-04-06T01:56:25.574Z,22.72
2023-04-06T01:59:03.201Z,22.71
2023-04-06T02:01:36.886Z,22.71
2023-04-06T02:04:04.013Z,22.70
2023-04-06T02:06:31.661Z,22.70
2023-04-06T02:09:00.947Z,22.70
2023-04-06T02:11:27.931Z,22.70
2023-04-06T02:13:56.866Z,22.71
2023-04-06T02:16:27.621Z,22.71
2023-04-06T02:18:54.647Z,22.70
2023-04-06T02:21:21.585Z,22.82
2023-04-06T02:23:48.631Z,22.86
2023-04-06T02:26:16.884Z,22.78
2023-04-06T02:28:43.853Z,22.81
2023-04-06T02:31:10.797Z,22.85
2023-04-06T02:33:38.284Z,22.85
2023-04-06T02:36:06.797Z,22.84
2023-04-06T02:38:33.718Z,22.85
2023-04-06T02:41:01.989Z,22.87
2023-04-06T02:43:31.342Z,22.75
2023-04-06T02:46:18.543Z,22.69
2023-04-06T02:48:45.567Z,22.80
2023-04-06T02:51:14.354Z,22.83
2023-04-06T02:53:45.400Z,22.85
2023-04-06T02:56:13.730Z,22.71
2023-04-06T02:58:49.355Z,22.69
2023-04-06T03:01:16.959Z,22.66
2023-04-06T03:03:44.440Z,22.64
2023-04-06T03:06:18.881Z,22.64
2023-04-06T03:08:46.395Z,22.64
2023-04-06T03:11:13.951Z,22.63
2023-04-06T03:13:43.305Z,22.63
2023-04-06T03:16:12.417Z,22.62
2023-04-06T03:18:40.928Z,22.61
2023-04-06T03:21:07.797Z,22.61
2023-04-06T03:23:44.730Z,22.62
2023-04-06T03:26:11.741Z,22.61
2023-04-06T03:28:38.602Z,22.61
2023-04-06T03:31:06.928Z,22.60
2023-04-06T03:33:58.056Z,22.59
2023-04-06T03:36:33.118Z,22.60
2023-04-06T03:39:01.119Z,22.61
2023-04-06T03:41:28.054Z,22.61
2023-04-06T03:44:06.928Z,22.59
2023-04-06T03:46:33.985Z,22.57
2023-04-06T03:49:02.470Z,22.57
2023-04-06T03:51:29.733Z,22.58
2023-04-06T03:53:56.677Z,22.58
2023-04-06T03:56:23.553Z,22.57
2023-04-06T03:58:53.068Z,22.55
2023-04-06T04:01:21.521Z,22.54
2023-04-06T04:03:50.966Z,22.55
2023-04-06T04:06:20.995Z,22.57
2023-04-06T04:08:47.921Z,22.53
2023-04-06T04:11:17.075Z,22.53
2023-04-06T04:13:47.175Z,22.54
2023-04-06T04:16:14.414Z,22.51
2023-04-06T04:18:44.686Z,22.50
2023-04-06T04:21:11.760Z,22.52
2023-04-06T04:23:39.986Z,22.54
2023-04-06T04:26:06.941Z,22.54
2023-04-06T04:28:35.291Z,22.52
2023-04-06T04:31:02.164Z,22.53
2023-04-06T04:33:32.348Z,22.53
2023-04-06T04:36:01.918Z,22.51
2023-04-06T04:38:33.712Z,22.54
2023-04-06T04:41:02.621Z,22.60
2023-04-06T04:43:32.292Z,22.64
2023-04-06T04:46:01.465Z,22.68
2023-04-06T04:48:40.437Z,22.70
2023-04-06T04:51:08.232Z,22.73
2023-04-06T04:53:49.474Z,22.76
2023-04-06T04:56:23.258Z,22.82
2023-04-06T04:58:55.203Z,22.89
2023-04-06T05:01:22.804Z,22.97
2023-04-06T05:03:50.207Z,23.04
2023-04-06T05:06:18.096Z,23.11
2023-04-06T05:08:45.019Z,23.20
2023-04-06T05:11:12.564Z,23.29
2023-04-06T05:13:46.497Z,23.38
2023-04-06T05:16:18.226Z,23.46
2023-04-06T05:18:45.557Z,23.53
2023-04-06T05:21:12.900Z,23.60
2023-04-06T05:24:11.805Z,23.67
2023-04-06T05:26:40.541Z,23.74
2023-04-06T05:29:17.879Z,23.82
2023-04-06T05:31:45.003Z,23.91
2023-04-06T05:34:13.438Z,23.98
2023-04-06T05:36:41.715Z,24.04
2023-04-06T05:39:17.374Z,24.06
2023-04-06T05:41:49.312Z,24.05
2023-04-06T05:44:20.106Z,24.05
2023-04-06T05:46:52.360Z,24.07
2023-04-06T05:49:19.320Z,24.07
2023-04-06T05:51:46.128Z,24.10
2023-04-06T05:54:13.365Z,24.09
2023-04-06T05:56:40.938Z,24.09
2023-04-06T05:59:11.667Z,24.04
2023-04-06T06:01:40.190Z,24.05
2023-04-06T06:04:07.458Z,24.03
2023-04-06T06:06:37.867Z,24.01
2023-04-06T06:09:16.527Z,23.98
2023-04-06T06:11:53.345Z,23.95
2023-04-06T06:14:24.732Z,23.92
2023-04-06T06:16:53.039Z,23.89
2023-04-06T06:19:20.068Z,23.86
2023-04-06T06:21:47.753Z,23.82
2023-04-06T06:24:15.573Z,23.87
2023-04-06T06:26:42.530Z,23.93
2023-04-06T06:29:11.557Z,23.81
2023-04-06T06:31:39.916Z,23.77
2023-04-06T06:34:08.623Z,23.73
2023-04-06T06:36:37.176Z,23.71
2023-04-06T06:39:07.985Z,23.71
2023-04-06T06:41:35.584Z,23.67
2023-04-06T06:44:03.246Z,23.66
2023-04-06T06:46:30.278Z,23.65
2023-04-06T06:48:57.198Z,23.64
2023-04-06T06:51:25.394Z,23.66
2023-04-06T06:53:53.144Z,23.66
2023-04-06T06:56:20.113Z,23.64
2023-04-06T06:58:47.178Z,23.65
2023-04-06T07:01:14.330Z,23.64
2023-04-06T07:03:41.281Z,23.62
2023-04-06T07:06:08.512Z,23.61
2023-04-06T07:08:36.839Z,23.60
2023-04-06T07:11:03.779Z,23.57
2023-04-06T07:13:30.754Z,23.59
2023-04-06T07:15:59.250Z,23.58
2023-04-06T07:18:26.292Z,23.57
2023-04-06T07:20:53.200Z,23.57
2023-04-06T07:23:20.317Z,23.55
2023-04-06T07:25:48.705Z,23.55
2023-04-06T07:28:15.640Z,23.52
2023-04-06T07:30:43.671Z,23.52
2023-04-06T07:33:12.224Z,23.52
2023-04-06T07:35:40.553Z,23.50
2023-04-06T07:38:07.895Z,23.51
2023-04-06T07:40:36.071Z,23.50
2023-04-06T07:43:05.079Z,23.51
2023-04-06T07:45:32.543Z,23.54
2023-04-06T07:48:01.155Z,23.52
2023-04-06T07:50:28.886Z,23.51
2023-04-06T07:52:56.771Z,23.51
2023-04-06T07:55:23.740Z,23.52
2023-04-06T07:57:51.606Z,23.52
2023-04-06T08:02:47.105Z,23.51
2023-04-06T08:05:14.178Z,23.51
2023-04-06T08:07:41.130Z,23.52
2023-04-06T08:10:08.481Z,23.50
2023-04-06T08:12:36.162Z,23.51
2023-04-06T08:15:04.664Z,23.51
2023-04-06T08:17:35.130Z,23.52
2023-04-06T08:20:04.385Z,23.54
2023-04-06T08:22:31.499Z,23.54
2023-04-06T08:24:58.416Z,23.55
2023-04-06T08:27:25.360Z,23.55
2023-04-06T08:29:52.541Z,23.61
2023-04-06T08:32:19.505Z,23.69
2023-04-06T08:34:47.923Z,23.72
2023-04-06T08:37:14.886Z,23.67
2023-04-06T08:39:41.781Z,23.60
2023-04-06T08:42:13.721Z,23.58
2023-04-06T08:44:42.185Z,23.57
2023-04-06T08:47:09.140Z,23.55
2023-04-06T08:49:38.438Z,23.56
2023-04-06T08:52:08.997Z,23.56
2023-04-06T08:54:36.024Z,23.58
2023-04-06T08:57:03.954Z,23.58
2023-04-06T08:59:31.640Z,23.58
2023-04-06T09:02:00.160Z,23.57
2023-04-06T09:04:27.936Z,23.59
2023-04-06T09:06:55.204Z,23.56
2023-04-06T09:09:26.009Z,23.55
2023-04-06T09:11:53.575Z,23.58
2023-04-06T09:14:35.631Z,23.56
2023-04-06T09:17:02.655Z,23.54
2023-04-06T09:19:29.561Z,23.51
2023-04-06T09:22:03.751Z,23.51
2023-04-06T09:24:42.662Z,23.50
2023-04-06T09:27:09.581Z,23.49
2023-04-06T09:29:37.700Z,23.50
2023-04-06T09:32:05.793Z,23.52
2023-04-06T09:34:32.918Z,23.51
2023-04-06T09:36:59.884Z,23.51
2023-04-06T09:39:27.085Z,23.49
2023-04-06T09:41:56.741Z,23.51
2023-04-06T09:44:25.112Z,23.51
2023-04-06T09:47:00.362Z,23.52
2023-04-06T09:49:30.863Z,23.51
2023-04-06T09:52:00.716Z,23.52
2023-04-06T09:54:30.691Z,23.52
2023-04-06T09:57:05.073Z,23.51
2023-04-06T09:59:39.596Z,23.49
2023-04-06T10:02:09.520Z,23.49
2023-04-06T10:04:44.217Z,23.48
2023-04-06T10:07:12.982Z,23.49
2023-04-06T10:09:40.230Z,23.51
2023-04-06T10:12:08.979Z,23.51
2023-04-06T10:14:37.962Z,23.51
2023-04-06T10:17:06.023Z,23.52
2023-04-06T10:19:42.843Z,23.51
2023-04-06T10:22:13.433Z,23.51
2023-04-06T10:24:40.345Z,23.54
2023-04-06T10:27:12.227Z,23.56
2023-04-06T10:29:47.532Z,23.56
2023-04-06T10:32:14.540Z,23.56
2023-04-06T10:34:41.528Z,23.55
2023-04-06T10:37:13.785Z,23.52
2023-04-06T10:39:48.083Z,23.54
2023-04-06T10:42:16.359Z,23.52
2023-04-06T10:44:45.507Z,23.52
2023-04-06T10:47:19.075Z,23.55
2023-04-06T10:49:46.097Z,23.55
2023-04-06T10:52:13.454Z,23.56
2023-04-06T10:54:48.992Z,23.56
2023-04-06T10:57:29.057Z,23.56
2023-04-06T10:59:55.937Z,23.54
2023-04-06T11:02:22.972Z,23.55
2023-04-06T11:04:57.369Z,23.55
2023-04-06T11:07:25.755Z,23.53
2023-04-06T11:10:11.244Z,23.52
2023-04-06T11:15:08.724Z,23.52
2023-04-06T11:17:37.064Z,23.52
2023-04-06T11:20:11.222Z,23.49
2023-04-06T11:22:49.377Z,23.48
2023-04-06T11:25:18.126Z,23.46
2023-04-06T11:27:47.465Z,23.43
2023-04-06T11:30:14.742Z,23.41
2023-04-06T11:32:45.239Z,23.43
2023-04-06T11:35:13.744Z,23.45
2023-04-06T11:37:40.929Z,23.43
2023-04-06T11:40:10.252Z,23.42
2023-04-06T11:42:37.227Z,23.42
2023-04-06T11:45:08.772Z,23.42
2023-04-06T11:47:37.543Z,23.42
2023-04-06T11:50:08.720Z,23.43
2023-04-06T11:52:35.955Z,23.43
2023-04-06T11:55:13.382Z,23.42
2023-04-06T11:57:40.807Z,23.43
2023-04-06T12:00:10.988Z,23.44
2023-04-06T12:02:38.341Z,23.47
2023-04-06T12:05:07.390Z,23.48
2023-04-06T12:07:34.535Z,23.50
2023-04-06T12:10:03.595Z,23.50
2023-04-06T12:12:31.019Z,23.50
2023-04-06T12:14:58.141Z,23.52
2023-04-06T12:17:26.662Z,23.54
2023-04-06T12:19:53.663Z,23.54
2023-04-06T12:22:20.726Z,23.55
2023-04-06T12:24:47.875Z,23.56
2023-04-06T12:27:14.875Z,23.57
2023-04-06T12:29:41.931Z,23.59
2023-04-06T12:32:09.463Z,23.59
2023-04-06T12:34:38.751Z,23.59
2023-04-06T12:37:05.633Z,23.57
2023-04-06T12:39:32.593Z,23.60
2023-04-06T12:41:59.623Z,23.59
2023-04-06T12:44:27.146Z,23.60
2023-04-06T12:46:54.347Z,23.60
2023-04-06T12:49:21.328Z,23.59
2023-04-06T12:51:49.688Z,23.62
2023-04-06T12:54:16.726Z,23.61
2023-04-06T12:56:43.626Z,23.59
2023-04-06T12:59:10.985Z,23.60
2023-04-06T13:01:38.371Z,23.60
2023-04-06T13:04:05.225Z,23.60
2023-04-06T13:06:32.374Z,23.61
2023-04-06T13:09:01.143Z,23.61
2023-04-06T13:11:28.759Z,23.60
2023-04-06T13:13:56.017Z,23.62
2023-04-06T13:16:23.244Z,23.63
2023-04-06T13:18:51.252Z,23.65
2023-04-06T13:21:18.406Z,23.65
2023-04-06T13:23:45.534Z,23.64
2023-04-06T13:26:16.063Z,23.66
2023-04-06T13:28:43.500Z,23.66
2023-04-06T13:31:11.016Z,23.64
2023-04-06T13:33:38.235Z,23.65
2023-04-06T13:36:07.336Z,23.65
2023-04-06T13:38:34.685Z,23.66
2023-04-06T13:41:01.664Z,23.68
2023-04-06T13:43:30.049Z,23.66
2023-04-06T13:45:59.452Z,23.67
2023-04-06T13:48:27.139Z,23.68
2023-04-06T13:50:54.189Z,23.68
2023-04-06T13:53:21.306Z,23.76
2023-04-06T13:55:53.682Z,23.80
2023-04-06T13:58:20.819Z,23.82
2023-04-06T14:00:49.201Z,23.84
2023-04-06T14:03:16.476Z,23.84
2023-04-06T14:05:43.458Z,23.85
2023-04-06T14:08:10.727Z,23.84
2023-04-06T14:10:43.743Z,23.84
2023-04-06T14:13:10.742Z,23.84
2023-04-06T14:15:37.736Z,23.85
2023-04-06T14:18:07.009Z,23.86
2023-04-06T14:20:34.057Z,23.83
2023-04-06T14:23:01.365Z,23.74
2023-04-06T14:25:28.413Z,23.72
2023-04-06T14:27:55.301Z,23.72
2023-04-06T14:30:22.078Z,23.71
2023-04-06T14:32:49.220Z,23.72
2023-04-06T14:35:17.726Z,23.71
2023-04-06T14:37:44.465Z,23.71
2023-04-06T14:40:12.188Z,23.70
2023-04-06T14:42:38.963Z,23.68
2023-04-06T14:45:06.867Z,23.68
2023-04-06T14:47:33.664Z,23.70
2023-04-06T14:50:00.968Z,23.71
2023-04-06T14:52:30.664Z,23.70
2023-04-06T14:54:59.297Z,23.70
2023-04-06T14:57:26.111Z,23.70
2023-04-06T14:59:54.118Z,23.71
2023-04-06T15:02:21.189Z,23.73
2023-04-06T15:04:48.334Z,23.73
2023-04-06T15:07:15.690Z,23.71
2023-04-06T15:09:43.936Z,23.72
2023-04-06T15:12:10.734Z,23.74
2023-04-06T15:14:37.587Z,23.75
2023-04-06T15:17:04.423Z,23.76
2023-04-06T15:19:31.308Z,23.75
2023-04-06T15:21:59.635Z,23.73
2023-04-06T15:24:27.785Z,23.80
2023-04-06T15:26:56.527Z,23.89
2023-04-06T15:29:23.474Z,23.90
2023-04-06T15:31:50.477Z,23.86
2023-04-06T15:34:17.398Z,23.88
2023-04-06T15:36:46.596Z,23.86
2023-04-06T15:39:14.553Z,23.87
2023-04-06T15:41:41.392Z,23.80
2023-04-06T15:44:09.649Z,23.77
2023-04-06T15:46:36.591Z,23.78
2023-04-06T15:49:03.963Z,23.79
2023-04-06T15:51:31.561Z,23.82
2023-04-06T15:53:58.696Z,23.83
2023-04-06T15:56:25.594Z,23.87
2023-04-06T15:58:52.549Z,23.91
2023-04-06T16:01:20.903Z,23.95
2023-04-06T16:03:47.922Z,23.99
2023-04-06T16:06:15.002Z,24.05
2023-04-06T16:08:42.196Z,24.10
2023-04-06T16:11:09.326Z,24.13
2023-04-06T16:13:36.959Z,24.20
2023-04-06T16:16:04.696Z,24.26
2023-04-06T16:18:35.781Z,24.35
2023-04-06T16:21:04.141Z,24.43
2023-04-06T16:23:31.264Z,24.51
2023-04-06T16:25:58.183Z,24.57
2023-04-06T16:28:25.781Z,24.64
2023-04-06T16:30:52.811Z,24.70
2023-04-06T16:33:19.722Z,24.74
2023-04-06T16:35:48.553Z,24.77
2023-04-06T16:38:16.197Z,24.80
2023-04-06T16:40:43.078Z,24.84
2023-04-06T16:43:10.191Z,24.87
2023-04-06T16:45:38.073Z,24.89
2023-04-06T16:48:05.115Z,24.91
2023-04-06T16:50:32.282Z,24.92
2023-04-06T16:53:00.628Z,24.96
2023-04-06T16:55:27.493Z,24.99
2023-04-06T16:57:55.896Z,25.04
2023-04-06T17:00:25.890Z,25.07
2023-04-06T17:02:53.107Z,25.09
2023-04-06T17:05:26.750Z,25.12
2023-04-06T17:07:56.513Z,25.15
2023-04-06T17:10:33.173Z,25.18
2023-04-06T17:13:01.442Z,25.20
2023-04-06T17:15:29.827Z,25.22
2023-04-06T17:17:57.670Z,25.22
2023-04-06T17:20:25.016Z,25.21
2023-04-06T17:22:51.878Z,25.23
2023-04-06T17:25:18.996Z,25.25
2023-04-06T17:27:47.530Z,25.26
2023-04-06T17:30:17.020Z,25.26
2023-04-06T17:32:45.748Z,25.27
2023-04-06T17:35:12.624Z,25.29
2023-04-06T17:37:40.468Z,25.31
2023-04-06T17:40:08.492Z,25.30
2023-04-06T17:42:35.422Z,25.31
2023-04-06T17:45:03.948Z,25.33
2023-04-06T17:47:32.190Z,25.35
2023-04-06T17:49:59.234Z,25.35
2023-04-06T17:52:27.143Z,25.37
2023-04-06T17:54:54.492Z,25.37
2023-04-06T17:57:21.482Z,25.39
2023-04-06T17:59:48.613Z,25.40
2023-04-06T18:02:17.216Z,25.39
2023-04-06T18:04:44.421Z,25.40
2023-04-06T18:07:11.611Z,25.41
2023-04-06T18:09:38.899Z,25.42
2023-04-06T18:12:06.094Z,25.43
2023-04-06T18:14:32.930Z,25.44
2023-04-06T18:16:59.996Z,25.44
2023-04-06T18:19:28.934Z,25.44
2023-04-06T18:21:55.953Z,25.43
2023-04-06T18:24:32.145Z,25.44
2023-04-06T18:27:08.289Z,25.43
2023-04-06T18:29:37.093Z,25.43
2023-04-06T18:32:06.850Z,25.43
2023-04-06T18:34:35.314Z,25.43
2023-04-06T18:37:02.559Z,25.44
2023-04-06T18:39:29.467Z,25.45
2023-04-06T18:41:56.651Z,25.46
2023-04-06T18:44:23.482Z,25.46
2023-04-06T18:46:52.599Z,25.46
2023-04-06T18:49:21.513Z,25.44
2023-04-06T18:51:49.814Z,25.42
2023-04-06T18:54:16.866Z,25.43
2023-04-06T18:56:43.647Z,25.47
2023-04-06T18:59:10.757Z,25.45
2023-04-06T19:01:40.932Z,25.45
2023-04-06T19:04:07.996Z,25.44
2023-04-06T19:06:35.001Z,25.45
2023-04-06T19:09:05.032Z,25.44
2023-04-06T19:11:32.498Z,25.46
2023-04-06T19:13:59.356Z,25.47
2023-04-06T19:16:27.423Z,25.46
2023-04-06T19:18:54.446Z,25.45
2023-04-06T19:21:23.085Z,25.44
2023-04-06T19:23:51.720Z,25.44
2023-04-06T19:26:22.069Z,25.44
2023-04-06T19:28:49.168Z,25.43
2023-04-06T19:31:18.166Z,25.43
2023-04-06T19:33:46.867Z,25.44
2023-04-06T19:36:14.049Z,25.41
2023-04-06T19:38:40.967Z,25.40
2023-04-06T19:41:08.171Z,25.38
2023-04-06T19:43:36.836Z,25.38
2023-04-06T19:46:04.610Z,25.38
2023-04-06T19:48:33.706Z,25.36
2023-04-06T19:51:00.856Z,25.34
2023-04-06T19:53:27.797Z,25.30
2023-04-06T19:55:54.659Z,25.26
2023-04-06T19:58:21.673Z,25.23
2023-04-06T20:00:49.837Z,25.19
2023-04-06T20:03:17.030Z,25.15
2023-04-06T20:05:44.007Z,25.12
2023-04-06T20:08:10.854Z,25.08
2023-04-06T20:10:37.768Z,25.04
2023-04-06T20:13:04.626Z,25.02
2023-04-06T20:15:31.719Z,24.99
2023-04-06T20:18:00.024Z,24.96
2023-04-06T20:20:26.964Z,24.94
2023-04-06T20:22:54.193Z,24.87
2023-04-06T20:25:21.965Z,24.83
2023-04-06T20:27:49.102Z,24.78
2023-04-06T20:30:16.661Z,24.74
2023-04-06T20:32:43.775Z,24.70
2023-04-06T20:35:12.150Z,24.66
2023-04-06T20:37:39.219Z,24.64
2023-04-06T20:40:07.438Z,24.61
2023-04-06T20:42:34.699Z,24.57
2023-04-06T20:45:03.306Z,24.53
2023-04-06T20:47:31.569Z,24.51
2023-04-06T20:49:58.634Z,24.50
2023-04-06T20:52:27.668Z,24.48
2023-04-06T20:54:54.882Z,24.47
2023-04-06T20:57:22.122Z,24.45
2023-04-06T20:59:48.927Z,24.44
2023-04-06T21:02:16.149Z,24.42
2023-04-06T21:04:43.956Z,24.41
2023-04-06T21:07:11.027Z,24.38
2023-04-06T21:09:40.399Z,24.36
2023-04-06T21:12:08.256Z,24.36
2023-04-06T21:14:35.416Z,24.36
2023-04-06T21:17:02.429Z,24.31
2023-04-06T21:19:29.337Z,24.30
2023-04-06T21:21:56.661Z,24.28
2023-04-06T21:24:23.604Z,24.26
2023-04-06T21:26:51.805Z,24.23
2023-04-06T21:29:18.727Z,24.22
2023-04-06T21:31:45.784Z,24.21
2023-04-06T21:34:14.211Z,24.16
2023-04-06T21:36:41.562Z,24.14
2023-04-06T21:39:08.576Z,24.14
2023-04-06T21:41:35.931Z,24.10
2023-04-06T21:44:04.410Z,24.07
2023-04-06T21:46:31.403Z,24.06
2023-04-06T21:48:58.440Z,24.02
2023-04-06T21:51:26.508Z,24.01
2023-04-06T21:53:53.796Z,23.97
2023-04-06T21:56:22.099Z,23.96
2023-04-06T21:58:49.022Z,23.91
2023-04-06T22:01:17.957Z,23.90
2023-04-06T22:03:45.275Z,23.86
2023-04-06T22:06:12.438Z,23.86
2023-04-06T22:08:39.285Z,23.81
2023-04-06T22:11:11.210Z,23.80
2023-04-06T22:13:38.658Z,23.78
2023-04-06T22:16:06.716Z,23.76
2023-04-06T22:18:36.707Z,23.74
2023-04-06T22:21:05.670Z,23.72
2023-04-06T22:23:32.859Z,23.70
2023-04-06T22:25:59.887Z,23.68
2023-04-06T22:28:27.370Z,23.67
2023-04-06T22:30:54.278Z,23.67
2023-04-06T22:33:21.530Z,23.64
2023-04-06T22:35:49.897Z,23.64
2023-04-06T22:38:16.711Z,23.61
2023-04-06T22:40:43.572Z,23.61
2023-04-06T22:43:10.437Z,23.60
2023-04-06T22:45:37.543Z,23.62
2023-04-06T22:48:04.432Z,23.61
2023-04-06T22:50:31.657Z,23.58
2023-04-06T22:52:59.847Z,23.57
2023-04-06T22:55:26.765Z,23.57
2023-04-06T22:57:53.732Z,23.55
2023-04-06T23:00:20.676Z,23.54
2023-04-06T23:02:47.606Z,23.52
2023-04-06T23:05:14.611Z,23.54
2023-04-06T23:07:41.417Z,23.52
2023-04-06T23:10:10.798Z,23.55
2023-04-06T23:12:37.672Z,23.51
2023-04-06T23:15:05.054Z,23.54
2023-04-06T23:17:31.875Z,23.49
2023-04-06T23:19:58.769Z,23.50
2023-04-06T23:22:25.540Z,23.52
2023-04-06T23:24:52.440Z,23.50
2023-04-06T23:27:20.665Z,23.48
2023-04-06T23:29:47.458Z,23.47
2023-04-06T23:32:14.397Z,23.47
2023-04-06T23:34:41.459Z,23.47
2023-04-06T23:37:08.428Z,23.48
2023-04-06T23:39:35.986Z,23.44
2023-04-06T23:42:02.957Z,23.42
2023-04-06T23:44:31.406Z,23.41
2023-04-06T23:46:58.304Z,23.43
2023-04-06T23:49:25.306Z,23.44
2023-04-06T23:51:52.161Z,23.42
2023-04-06T23:54:19.086Z,23.40
2023-04-06T23:56:46.412Z,23.40
2023-04-06T23:59:13.371Z,23.40
